createdAt,value
2022-08-10T00:01:12.518Z,17.70
2022-08-10T00:04:21.603Z,17.60
2022-08-10T00:07:24.912Z,17.60
2022-08-10T00:10:28.189Z,17.60
2022-08-10T00:13:32.770Z,17.60
2022-08-10T00:16:35.812Z,17.60
2022-08-10T00:20:02.561Z,17.50
2022-08-10T00:23:01.870Z,17.40
2022-08-10T00:26:05.207Z,17.20
2022-08-10T00:29:11.998Z,17.10
2022-08-10T00:32:15.019Z,17.10
2022-08-10T00:35:18.128Z,17.20
2022-08-10T00:38:21.254Z,17.20
2022-08-10T00:41:24.260Z,17.30
2022-08-10T00:44:28.617Z,17.30
2022-08-10T00:47:37.345Z,17.30
2022-08-10T00:50:40.889Z,17.30
2022-08-10T00:53:43.949Z,17.20
2022-08-10T00:57:15.696Z,17.20
2022-08-10T01:00:12.453Z,17.20
2022-08-10T01:03:16.840Z,17.20
2022-08-10T01:06:48.818Z,17.20
2022-08-10T01:10:03.870Z,17.10
2022-08-10T01:13:14.121Z,17.10
2022-08-10T01:16:26.726Z,17.10
2022-08-10T01:19:53.557Z,17.10
2022-08-10T01:23:34.395Z,17.10
2022-08-10T01:26:57.699Z,17.00
2022-08-10T01:30:09.528Z,17.00
2022-08-10T01:33:18.810Z,17.00
2022-08-10T01:36:42.384Z,17.00
2022-08-10T01:39:48.268Z,16.90
2022-08-10T01:42:52.187Z,16.90
2022-08-10T01:45:58.401Z,16.90
2022-08-10T01:49:02.636Z,16.90
2022-08-10T01:52:07.875Z,16.90
2022-08-10T01:55:13.398Z,16.80
2022-08-10T01:58:18.493Z,16.80
2022-08-10T02:01:26.477Z,16.80
2022-08-10T02:04:32.223Z,16.80
2022-08-10T02:07:38.749Z,16.80
2022-08-10T02:10:44.487Z,16.80
2022-08-10T02:13:48.159Z,16.80
2022-08-10T02:16:53.780Z,16.80
2022-08-10T02:20:01.103Z,16.80
2022-08-10T02:23:08.483Z,16.70
2022-08-10T02:26:13.674Z,16.70
2022-08-10T02:29:18.286Z,16.60
2022-08-10T02:32:36.100Z,16.60
2022-08-10T02:35:55.333Z,16.60
2022-08-10T02:39:01.973Z,16.60
2022-08-10T02:45:12.827Z,16.50
2022-08-10T02:45:40.082Z,16.60
2022-08-10T02:48:47.063Z,16.50
2022-08-10T02:52:08.112Z,16.40
2022-08-10T02:55:31.691Z,16.40
2022-08-10T02:58:40.776Z,16.40
2022-08-10T03:01:47.345Z,16.50
2022-08-10T03:04:58.349Z,16.40
2022-08-10T03:08:03.296Z,16.40
2022-08-10T03:11:08.711Z,16.30
2022-08-10T03:14:12.942Z,16.30
2022-08-10T03:17:17.885Z,16.30
2022-08-10T03:20:37.993Z,16.20
2022-08-10T03:23:43.856Z,16.10
2022-08-10T03:26:47.263Z,16.00
2022-08-10T03:30:29.881Z,16.00
2022-08-10T03:33:17.606Z,16.10
2022-08-10T03:36:40.061Z,16.10
2022-08-10T03:39:44.344Z,16.00
2022-08-10T03:42:50.839Z,16.10
2022-08-10T03:45:56.849Z,16.10
2022-08-10T03:49:03.498Z,16.10
2022-08-10T03:52:08.399Z,16.10
2022-08-10T03:55:12.485Z,16.00
2022-08-10T03:58:35.689Z,16.00
2022-08-10T04:02:46.490Z,16.00
2022-08-10T04:05:02.142Z,16.00
2022-08-10T04:08:08.019Z,15.90
2022-08-10T04:11:11.454Z,15.80
2022-08-10T04:14:38.786Z,15.80
2022-08-10T04:18:03.325Z,15.80
2022-08-10T04:21:04.226Z,15.80
2022-08-10T04:24:26.879Z,15.90
2022-08-10T04:27:33.177Z,16.00
2022-08-10T04:30:37.091Z,16.00
2022-08-10T04:33:44.155Z,16.00
2022-08-10T04:36:48.618Z,15.90
2022-08-10T04:39:53.091Z,15.90
2022-08-10T04:43:01.409Z,15.80
2022-08-10T04:46:13.997Z,15.90
2022-08-10T04:49:54.083Z,16.00
2022-08-10T04:52:52.548Z,16.10
2022-08-10T04:55:56.980Z,16.10
2022-08-10T04:59:00.181Z,16.20
2022-08-10T05:02:30.608Z,16.20
2022-08-10T05:05:26.315Z,16.30
2022-08-10T05:08:29.325Z,16.30
2022-08-10T05:11:33.732Z,16.40
2022-08-10T05:14:36.733Z,16.50
2022-08-10T05:17:41.094Z,16.60
2022-08-10T05:21:04.171Z,16.70
2022-08-10T05:24:07.932Z,16.80
2022-08-10T05:27:12.361Z,16.80
2022-08-10T05:30:17.269Z,16.90
2022-08-10T05:33:20.275Z,17.00
2022-08-10T05:36:23.396Z,17.20
2022-08-10T05:39:30.108Z,17.50
2022-08-10T05:42:36.977Z,18.00
2022-08-10T05:46:17.522Z,18.50
2022-08-10T05:49:03.181Z,19.00
2022-08-10T05:52:07.076Z,19.40
2022-08-10T05:55:10.798Z,19.90
2022-08-10T05:58:15.243Z,20.30
2022-08-10T06:01:23.445Z,20.60
2022-08-10T06:04:31.532Z,20.90
2022-08-10T06:07:38.472Z,21.20
2022-08-10T06:12:23.409Z,21.50
2022-08-10T06:14:29.092Z,21.80
2022-08-10T06:17:33.006Z,21.80
2022-08-10T06:20:36.631Z,21.90
2022-08-10T06:23:40.154Z,21.90
2022-08-10T06:26:43.287Z,22.30
2022-08-10T06:29:50.158Z,22.90
2022-08-10T06:32:56.674Z,23.60
2022-08-10T06:36:01.414Z,24.10
2022-08-10T06:39:29.905Z,24.10
2022-08-10T06:42:32.412Z,23.70
2022-08-10T06:45:42.284Z,23.20
2022-08-10T06:48:50.642Z,22.80
2022-08-10T06:51:57.664Z,22.50
2022-08-10T06:55:05.517Z,22.10
2022-08-10T06:58:13.720Z,21.90
2022-08-10T07:01:23.761Z,21.70
2022-08-10T07:04:33.163Z,21.50
2022-08-10T07:07:39.990Z,21.50
2022-08-10T07:10:46.035Z,21.50
2022-08-10T07:14:14.639Z,21.60
2022-08-10T07:17:17.423Z,21.60
2022-08-10T07:20:23.691Z,21.60
2022-08-10T07:23:55.577Z,21.60
2022-08-10T07:26:54.155Z,21.70
2022-08-10T07:29:58.546Z,21.80
2022-08-10T07:33:05.669Z,22.00
2022-08-10T07:36:11.171Z,22.20
2022-08-10T07:39:15.232Z,22.30
2022-08-10T07:42:45.506Z,22.40
2022-08-10T07:45:50.590Z,22.40
2022-08-10T07:49:00.422Z,22.50
2022-08-10T07:52:08.211Z,22.50
2022-08-10T07:55:16.645Z,22.70
2022-08-10T07:58:23.266Z,22.80
2022-08-10T08:01:32.605Z,23.00
2022-08-10T08:04:37.696Z,23.20
2022-08-10T08:07:42.057Z,23.30
2022-08-10T08:10:47.663Z,23.30
2022-08-10T08:13:52.157Z,23.40
2022-08-10T08:16:57.176Z,23.50
2022-08-10T08:20:04.079Z,23.50
2022-08-10T08:24:30.502Z,23.40
2022-08-10T08:26:37.427Z,23.40
2022-08-10T08:29:42.947Z,23.50
2022-08-10T08:32:46.815Z,23.70
2022-08-10T08:35:51.580Z,23.80
2022-08-10T08:38:55.104Z,23.80
2022-08-10T08:42:13.675Z,23.90
2022-08-10T08:45:26.347Z,24.00
2022-08-10T08:48:54.104Z,24.00
2022-08-10T08:52:18.385Z,24.00
2022-08-10T08:56:03.392Z,24.10
2022-08-10T08:59:09.703Z,24.10
2022-08-10T09:02:24.283Z,24.20
2022-08-10T09:06:00.167Z,24.10
2022-08-10T09:09:19.875Z,24.10
2022-08-10T09:12:43.114Z,24.20
2022-08-10T09:15:52.581Z,24.20
2022-08-10T09:19:09.143Z,24.30
2022-08-10T09:22:22.441Z,24.40
2022-08-10T09:25:33.420Z,24.60
2022-08-10T09:28:40.870Z,24.60
2022-08-10T09:33:05.988Z,24.60
2022-08-10T09:36:25.759Z,24.60
2022-08-10T09:38:52.988Z,24.50
2022-08-10T09:42:05.685Z,24.60
2022-08-10T09:45:24.812Z,24.60
2022-08-10T09:48:34.383Z,24.50
2022-08-10T09:51:46.380Z,24.50
2022-08-10T09:55:01.887Z,24.50
2022-08-10T09:58:30.004Z,24.50
2022-08-10T10:02:00.658Z,24.50
2022-08-10T10:05:13.328Z,24.60
2022-08-10T10:08:25.369Z,24.60
2022-08-10T10:11:36.125Z,24.70
2022-08-10T10:15:24.617Z,24.70
2022-08-10T10:18:42.632Z,24.80
2022-08-10T10:21:55.120Z,24.80
2022-08-10T10:25:20.954Z,24.90
2022-08-10T10:29:11.368Z,25.00
2022-08-10T10:32:13.820Z,25.20
2022-08-10T10:35:24.363Z,25.30
2022-08-10T10:38:33.571Z,25.50
2022-08-10T10:42:03.144Z,25.60
2022-08-10T10:45:17.347Z,25.60
2022-08-10T10:48:29.586Z,25.80
2022-08-10T10:51:38.982Z,26.00
2022-08-10T10:54:48.261Z,26.10
2022-08-10T10:58:01.116Z,26.30
2022-08-10T11:01:11.367Z,26.40
2022-08-10T11:04:24.315Z,26.40
2022-08-10T11:07:34.968Z,26.30
2022-08-10T11:10:47.020Z,26.20
2022-08-10T11:14:25.409Z,26.20
2022-08-10T11:17:29.643Z,26.20
2022-08-10T11:20:44.332Z,26.20
2022-08-10T11:24:42.596Z,26.10
2022-08-10T11:27:27.788Z,26.20
2022-08-10T11:30:37.294Z,26.30
2022-08-10T11:34:11.622Z,26.50
2022-08-10T11:37:23.227Z,26.70
2022-08-10T11:40:32.604Z,26.70
2022-08-10T11:43:43.051Z,26.70
2022-08-10T11:46:54.522Z,26.70
2022-08-10T11:50:02.770Z,26.70
2022-08-10T11:53:18.443Z,26.60
2022-08-10T11:56:28.667Z,26.70
2022-08-10T11:59:58.256Z,26.90
2022-08-10T12:03:06.887Z,27.00
2022-08-10T12:06:14.502Z,27.10
2022-08-10T12:10:09.635Z,27.10
2022-08-10T12:12:51.766Z,27.10
2022-08-10T12:16:05.376Z,27.10
2022-08-10T12:19:19.818Z,27.30
2022-08-10T12:22:28.570Z,27.70
2022-08-10T12:25:56.696Z,28.40
2022-08-10T12:29:08.775Z,28.80
2022-08-10T12:32:17.877Z,28.70
2022-08-10T12:35:36.562Z,28.40
2022-08-10T12:38:47.312Z,28.20
2022-08-10T12:41:57.733Z,28.20
2022-08-10T12:45:06.533Z,28.30
2022-08-10T12:48:17.735Z,28.60
2022-08-10T12:51:24.406Z,28.90
2022-08-10T12:54:32.918Z,29.20
2022-08-10T12:57:39.759Z,29.90
2022-08-10T13:01:05.823Z,31.00
2022-08-10T13:04:21.323Z,32.50
2022-08-10T13:08:03.967Z,33.50
2022-08-10T13:11:02.663Z,34.30
2022-08-10T13:14:13.543Z,34.40
2022-08-10T13:17:24.152Z,35.90
2022-08-10T13:20:37.802Z,34.70
2022-08-10T13:24:03.509Z,34.50
2022-08-10T13:27:26.522Z,33.90
2022-08-10T13:30:38.274Z,33.90
2022-08-10T13:34:41.705Z,33.30
2022-08-10T13:37:17.872Z,32.50
2022-08-10T13:40:21.997Z,31.60
2022-08-10T13:43:26.911Z,31.20
2022-08-10T13:46:32.520Z,30.60
2022-08-10T13:49:47.647Z,30.30
2022-08-10T13:52:53.870Z,30.00
2022-08-10T13:55:58.818Z,29.70
2022-08-10T13:59:05.617Z,29.60
2022-08-10T14:02:17.226Z,29.60
2022-08-10T14:05:25.637Z,29.50
2022-08-10T14:08:32.473Z,29.60
2022-08-10T14:11:38.056Z,29.50
2022-08-10T14:14:43.753Z,29.20
2022-08-10T14:17:54.754Z,29.20
2022-08-10T14:20:59.496Z,29.10
2022-08-10T14:24:02.596Z,29.20
2022-08-10T14:27:08.365Z,29.10
2022-08-10T14:30:15.828Z,28.90
2022-08-10T14:33:24.296Z,28.80
2022-08-10T14:36:33.395Z,28.80
2022-08-10T14:39:44.534Z,28.90
2022-08-10T14:42:52.364Z,28.70
2022-08-10T14:46:03.435Z,28.70
2022-08-10T14:49:25.375Z,28.50
2022-08-10T14:52:31.647Z,28.50
2022-08-10T14:55:57.786Z,28.40
2022-08-10T14:59:07.030Z,28.40
2022-08-10T15:02:38.276Z,28.30
2022-08-10T15:05:39.511Z,28.30
2022-08-10T15:08:47.033Z,28.20
2022-08-10T15:12:14.922Z,27.90
2022-08-10T15:15:28.187Z,27.90
2022-08-10T15:18:32.729Z,28.10
2022-08-10T15:21:42.678Z,28.00
2022-08-10T15:25:04.622Z,27.90
2022-08-10T15:28:10.330Z,27.90
2022-08-10T15:31:19.096Z,27.90
2022-08-10T15:34:41.843Z,27.90
2022-08-10T15:37:47.584Z,27.70
2022-08-10T15:40:59.267Z,27.80
2022-08-10T15:44:03.179Z,27.80
2022-08-10T15:47:10.422Z,27.80
2022-08-10T15:50:20.219Z,27.80
2022-08-10T15:53:33.624Z,27.80
2022-08-10T15:56:56.607Z,27.80
2022-08-10T16:00:04.535Z,27.70
2022-08-10T16:03:14.486Z,27.70
2022-08-10T16:06:28.567Z,27.60
2022-08-10T16:10:23.796Z,27.60
2022-08-10T16:13:50.914Z,27.60
2022-08-10T16:16:38.023Z,27.50
2022-08-10T16:19:50.700Z,27.50
2022-08-10T16:22:57.433Z,27.60
2022-08-10T16:26:14.770Z,27.60
2022-08-10T16:29:21.971Z,27.50
2022-08-10T16:32:26.300Z,27.50
2022-08-10T16:35:30.638Z,27.50
2022-08-10T16:38:38.862Z,27.40
2022-08-10T16:42:04.906Z,27.40
2022-08-10T16:45:09.708Z,27.30
2022-08-10T16:48:16.049Z,27.30
2022-08-10T16:51:40.748Z,27.20
2022-08-10T16:54:50.176Z,27.20
2022-08-10T16:57:57.684Z,27.20
2022-08-10T17:01:04.802Z,27.10
2022-08-10T17:04:10.468Z,27.10
2022-08-10T17:07:17.933Z,27.00
2022-08-10T17:10:22.747Z,27.00
2022-08-10T17:13:29.791Z,26.90
2022-08-10T17:16:36.125Z,26.90
2022-08-10T17:19:43.447Z,26.90
2022-08-10T17:22:50.473Z,26.80
2022-08-10T17:26:02.504Z,26.80
2022-08-10T17:29:53.370Z,26.70
2022-08-10T17:32:44.237Z,26.70
2022-08-10T17:35:51.492Z,26.70
2022-08-10T17:38:56.063Z,26.60
2022-08-10T17:42:00.915Z,26.50
2022-08-10T17:45:06.715Z,26.50
2022-08-10T17:48:10.273Z,26.40
2022-08-10T17:51:15.393Z,26.30
2022-08-10T17:54:26.384Z,26.30
2022-08-10T17:57:34.377Z,26.30
2022-08-10T18:00:42.828Z,26.30
2022-08-10T18:03:51.419Z,26.20
2022-08-10T18:06:57.308Z,26.10
2022-08-10T18:10:01.460Z,26.10
2022-08-10T18:13:05.248Z,26.00
2022-08-10T18:16:11.023Z,25.90
2022-08-10T18:19:15.566Z,25.90
2022-08-10T18:22:19.889Z,25.80
2022-08-10T18:25:26.241Z,25.70
2022-08-10T18:28:31.134Z,25.70
2022-08-10T18:31:37.090Z,25.60
2022-08-10T18:34:43.435Z,25.60
2022-08-10T18:37:49.875Z,25.50
2022-08-10T18:41:03.591Z,25.40
2022-08-10T18:44:12.695Z,25.30
2022-08-10T18:47:22.024Z,25.20
2022-08-10T18:50:29.432Z,25.10
2022-08-10T18:53:37.757Z,25.00
2022-08-10T18:56:52.978Z,25.00
2022-08-10T19:00:08.613Z,24.90
2022-08-10T19:03:39.671Z,24.90
2022-08-10T19:07:13.068Z,24.80
2022-08-10T19:10:28.671Z,24.70
2022-08-10T19:13:37.579Z,24.60
2022-08-10T19:16:55.136Z,24.60
2022-08-10T19:20:11.461Z,24.50
2022-08-10T19:23:27.863Z,24.40
2022-08-10T19:26:46.077Z,24.30
2022-08-10T19:30:08.859Z,24.20
2022-08-10T19:33:26.366Z,24.10
2022-08-10T19:36:43.304Z,24.00
2022-08-10T19:39:57.657Z,24.00
2022-08-10T19:43:09.379Z,23.90
2022-08-10T19:46:27.964Z,23.90
2022-08-10T19:49:41.458Z,23.80
2022-08-10T19:52:53.709Z,23.70
2022-08-10T19:56:24.296Z,23.60
2022-08-10T20:00:15.166Z,23.60
2022-08-10T20:03:17.936Z,23.50
2022-08-10T20:06:25.552Z,23.50
2022-08-10T20:09:45.878Z,23.40
2022-08-10T20:13:01.015Z,23.30
2022-08-10T20:16:08.840Z,23.20
2022-08-10T20:19:19.253Z,23.10
2022-08-10T20:22:30.169Z,23.10
2022-08-10T20:25:35.367Z,23.00
2022-08-10T20:28:43.672Z,22.90
2022-08-10T20:31:51.259Z,22.80
2022-08-10T20:35:03.580Z,22.90
2022-08-10T20:38:11.366Z,22.70
2022-08-10T20:41:22.779Z,22.70
2022-08-10T20:44:35.471Z,22.60
2022-08-10T20:47:53.938Z,22.50
2022-08-10T20:50:59.737Z,22.50
2022-08-10T20:54:06.309Z,22.40
2022-08-10T20:57:56.396Z,22.40
2022-08-10T21:01:09.875Z,22.30
2022-08-10T21:04:18.861Z,22.20
2022-08-10T21:08:03.564Z,22.20
2022-08-10T21:11:12.612Z,22.10
2022-08-10T21:14:34.170Z,22.00
2022-08-10T21:17:52.617Z,22.10
2022-08-10T21:21:03.235Z,22.00
2022-08-10T21:24:14.806Z,21.90
2022-08-10T21:27:55.245Z,21.90
2022-08-10T21:31:22.083Z,21.90
2022-08-10T21:34:40.775Z,21.80
2022-08-10T21:38:04.026Z,21.80
2022-08-10T21:41:57.333Z,21.80
2022-08-10T21:45:58.208Z,21.70
2022-08-10T21:49:22.990Z,21.60
2022-08-10T21:52:53.933Z,21.60
2022-08-10T21:56:22.301Z,21.50
2022-08-10T21:59:56.449Z,21.50
2022-08-10T22:03:19.647Z,21.40
2022-08-10T22:06:52.746Z,21.40
2022-08-10T22:10:16.496Z,21.30
2022-08-10T22:13:37.821Z,21.20
2022-08-10T22:18:03.779Z,21.10
2022-08-10T22:20:53.458Z,21.10
2022-08-10T22:24:32.715Z,21.00
2022-08-10T22:27:56.035Z,21.00
2022-08-10T22:31:32.313Z,20.90
2022-08-10T22:35:07.924Z,20.80
2022-08-10T22:38:38.377Z,20.80
2022-08-10T22:42:11.173Z,20.70
2022-08-10T22:45:34.977Z,20.60
2022-08-10T22:48:59.883Z,20.60
2022-08-10T22:52:10.165Z,20.60
2022-08-10T22:55:34.605Z,20.50
2022-08-10T22:58:42.800Z,20.50
2022-08-10T23:02:08.402Z,20.40
2022-08-10T23:05:15.512Z,20.40
2022-08-10T23:08:30.360Z,20.40
2022-08-10T23:11:37.270Z,20.30
2022-08-10T23:14:59.044Z,20.20
2022-08-10T23:18:24.859Z,20.10
2022-08-10T23:22:03.559Z,20.10
2022-08-10T23:25:05.838Z,20.10
2022-08-10T23:28:13.187Z,20.00
2022-08-10T23:32:00.847Z,20.00
2022-08-10T23:36:31.735Z,19.90
2022-08-10T23:38:15.092Z,19.90
2022-08-10T23:41:27.359Z,19.90
2022-08-10T23:44:39.203Z,19.70
2022-08-10T23:47:46.664Z,19.70
2022-08-10T23:50:58.334Z,19.70
2022-08-10T23:54:07.708Z,19.70
2022-08-10T23:57:17.203Z,19.60
